sensor_id;sensor_type;location;lat;lon;timestamp;pressure;altitude;pressure_sealevel;temperature;humidity
70488;BME280;57976;48.174;16.370;2023-05-07T00:00:14;99260.75;;;15.12;96.58
70488;BME280;57976;48.174;16.370;2023-05-07T00:02:19;99259.45;;;15.13;96.72
70488;BME280;57976;48.174;16.370;2023-05-07T00:04:24;99255.98;;;15.19;96.78
70488;BME280;57976;48.174;16.370;2023-05-07T00:06:29;99255.73;;;15.20;96.45
70488;BME280;57976;48.174;16.370;2023-05-07T00:08:34;99257.90;;;15.21;96.10
70488;BME280;57976;48.174;16.370;2023-05-07T00:10:39;99256.30;;;15.21;96.26
70488;BME280;57976;48.174;16.370;2023-05-07T00:12:43;99254.83;;;15.20;96.07
70488;BME280;57976;48.174;16.370;2023-05-07T00:14:48;99254.04;;;15.18;96.00
70488;BME280;57976;48.174;16.370;2023-05-07T00:16:53;99254.41;;;15.14;96.05
70488;BME280;57976;48.174;16.370;2023-05-07T00:18:58;99254.00;;;15.08;96.50
70488;BME280;57976;48.174;16.370;2023-05-07T00:21:03;99263.86;;;15.06;96.63
70488;BME280;57976;48.174;16.370;2023-05-07T00:23:08;99258.84;;;15.00;96.97
70488;BME280;57976;48.174;16.370;2023-05-07T00:25:14;99259.99;;;14.95;97.12
70488;BME280;57976;48.174;16.370;2023-05-07T00:27:18;99259.08;;;14.90;97.49
70488;BME280;57976;48.174;16.370;2023-05-07T00:29:23;99262.66;;;14.86;97.74
70488;BME280;57976;48.174;16.370;2023-05-07T00:31:28;99267.25;;;14.79;98.57
70488;BME280;57976;48.174;16.370;2023-05-07T00:33:32;99263.71;;;14.70;98.58
70488;BME280;57976;48.174;16.370;2023-05-07T00:35:37;99263.85;;;14.64;98.90
70488;BME280;57976;48.174;16.370;2023-05-07T00:37:42;99262.90;;;14.58;99.29
70488;BME280;57976;48.174;16.370;2023-05-07T00:39:47;99265.48;;;14.56;99.58
70488;BME280;57976;48.174;16.370;2023-05-07T00:41:51;99265.19;;;14.53;99.78
70488;BME280;57976;48.174;16.370;2023-05-07T00:43:56;99260.59;;;14.50;99.97
70488;BME280;57976;48.174;16.370;2023-05-07T00:46:01;99262.28;;;14.49;99.97
70488;BME280;57976;48.174;16.370;2023-05-07T00:48:06;99267.71;;;14.47;99.98
70488;BME280;57976;48.174;16.370;2023-05-07T00:50:11;99260.99;;;14.47;100.00
70488;BME280;57976;48.174;16.370;2023-05-07T00:52:17;99260.41;;;14.47;100.00
70488;BME280;57976;48.174;16.370;2023-05-07T00:54:24;99261.05;;;14.49;100.00
70488;BME280;57976;48.174;16.370;2023-05-07T00:56:29;99257.16;;;14.50;100.00
70488;BME280;57976;48.174;16.370;2023-05-07T00:58:34;99255.81;;;14.49;100.00
70488;BME280;57976;48.174;16.370;2023-05-07T01:00:39;99260.72;;;14.49;100.00
70488;BME280;57976;48.174;16.370;2023-05-07T01:04:35;99258.10;;;14.51;100.00
70488;BME280;57976;48.174;16.370;2023-05-07T01:06:41;99261.41;;;14.47;100.00
70488;BME280;57976;48.174;16.370;2023-05-07T01:08:47;99260.89;;;14.43;100.00
70488;BME280;57976;48.174;16.370;2023-05-07T01:10:52;99257.65;;;14.38;100.00
70488;BME280;57976;48.174;16.370;2023-05-07T01:12:58;99256.55;;;14.34;100.00
70488;BME280;57976;48.174;16.370;2023-05-07T01:15:04;99259.65;;;14.30;99.88
70488;BME280;57976;48.174;16.370;2023-05-07T01:17:10;99259.02;;;14.27;99.94
70488;BME280;57976;48.174;16.370;2023-05-07T01:19:16;99258.69;;;14.27;99.93
70488;BME280;57976;48.174;16.370;2023-05-07T01:21:26;99260.77;;;14.25;99.72
70488;BME280;57976;48.174;16.370;2023-05-07T01:23:34;99262.27;;;14.24;99.78
70488;BME280;57976;48.174;16.370;2023-05-07T01:25:39;99262.23;;;14.25;99.84
70488;BME280;57976;48.174;16.370;2023-05-07T01:27:45;99262.29;;;14.25;99.76
70488;BME280;57976;48.174;16.370;2023-05-07T01:29:49;99259.38;;;14.24;99.59
70488;BME280;57976;48.174;16.370;2023-05-07T01:31:55;99259.59;;;14.23;99.16
